Daily Tabular Data
[Select Refresh to Update]


8/20/18
Time         Wind Dir   Wind Spd  Wind Gust     Hum In   Humidity    Temp In       Temp  Raw Barom   Tot Rain Wind Chill Heat Ix In Heat Index  Dew Point  DailyRain   HourRain   RainRate
                            mph        mph          %          %         F         F         in         in         F         F         F         F         in         in      in/hr
12:00am           173          0          4         64         88       76.1       69.2      29.03       0.00       69.2       78.4       74.5       65.5       0.00       0.00      0.000
12:30am           171          0          3         64         88       75.8       69.1      29.04       0.00       69.1       78.1       74.4       65.4       0.00       0.00      0.000
1:00am            180          0          3         65         88       75.6       68.9      29.03       0.00       68.9       78.0       74.2       65.2       0.00       0.00      0.000
1:30am            196          0          2         66         90       75.3       68.6      29.03       0.00       68.6       77.8       74.2       65.6       0.00       0.00      0.000
2:00am            175          0          4         66         91       74.9       68.1      29.03       0.00       68.1       77.4       73.9       65.4       0.00       0.00      0.000
2:30am            152          0          5         67         91       74.7       68.0      29.03       0.00       68.0       77.3       73.8       65.3       0.00       0.00      0.000
3:00am            188          0          4         68         92       74.5       67.9      29.04       0.00       67.9       77.2       73.8       65.5       0.00       0.00      0.000
3:30am            178          0          4         68         92       74.4       68.0      29.04       0.00       68.0       77.1       73.9       65.6       0.00       0.00      0.000
4:00am            168          2          8         68         92       74.3       67.9      29.05       0.00       67.9       77.0       73.8       65.5       0.00       0.00      0.000
4:30am            147          1          9         68         92       74.3       68.0      29.05       0.00       68.0       77.0       73.9       65.6       0.00       0.00      0.000
5:00am            157          3          9         69         92       74.3       68.1      29.05       0.00       68.1       77.1       74.0       65.7       0.00       0.00      0.000
5:30am            145          1          6         68         92       74.5       68.3      29.05       0.00       68.3       77.2       74.2       65.9       0.00       0.00      0.000
6:00am            147          0          6         67         91       74.8       68.7      29.05       0.00       68.7       77.4       74.5       66.0       0.00       0.00      0.000
6:30am            194          1          6         67         90       74.9       69.2      29.07       0.00       69.2       77.5       74.8       66.1       0.00       0.00      0.000
7:00am            170          0          9         66         92       75.4       70.5      29.07       0.00       70.5       77.9       76.4       68.1       0.00       0.00      0.000
7:30am            172          8          8         65         88       76.2       69.9      29.08       0.00       69.9       78.6       75.2       66.2       0.00       0.00      0.000
8:00am            151          3          8         64         87       76.5       70.3      29.08       0.00       70.3       78.8       75.5       66.3       0.00       0.00      0.000
8:30am            129          3          7         63         86       76.8       70.8      29.09       0.00       70.8       78.9       75.9       66.4       0.00       0.00      0.000
9:00am            147          3          5         63         85       77.0       71.7      29.09       0.00       71.7       79.1       76.6       67.0       0.00       0.00      0.000
9:30am            171          1          6         63         84       77.3       73.5      29.09       0.00       73.5       79.4       78.3       68.4       0.00       0.00      0.000
10:00am           171          2          4         62         81       77.6       74.5      29.09       0.00       74.5       79.6       78.9       68.3       0.00       0.00      0.000
10:30am           190          6          6         62         69       77.8       79.5      29.08       0.00       79.5       79.8       82.3       68.4       0.00       0.00      0.000
11:00am           181          1          8         62         74       78.0       79.2      29.08       0.00       79.2       80.0       82.6       70.2       0.00       0.00      0.000
11:30am           296          0          5         62         65       78.2       82.4      29.08       0.00       82.4       80.2       86.1       69.5       0.00       0.00      0.000
12:00pm           282          6          8         62         65       78.4       83.1      29.08       0.00       83.1       80.4       87.3       70.1       0.00       0.00      0.000
12:30pm           285          3          9         62         60       78.7       85.2      29.07       0.00       85.2       80.7       89.6       69.8       0.00       0.00      0.000
1:00pm            188          4          9         62         59       78.9       86.1      29.07       0.00       86.1       80.9       90.9       70.1       0.00       0.00      0.000
1:30pm            336          1          9         62         62       79.2       84.7      29.06       0.00       84.7       81.2       89.3       70.3       0.00       0.00      0.000
2:00pm            188          7         11         55         62       78.4       84.8      29.06       0.00       84.8       79.7       89.5       70.3       0.00       0.00      0.000
2:30pm             10          0         12         53         58       78.3       85.9      29.05       0.00       85.9       79.4       90.2       69.4       0.00       0.00      0.000
3:00pm            266          3         10         51         61       77.9       84.5      29.05       0.00       84.5       78.8       88.7       69.6       0.00       0.00      0.000
3:30pm            226          3         12         50         60       78.0       84.8      29.04       0.00       84.8       78.8       88.9       69.4       0.00       0.00      0.000